createdAt,value
2022-08-22T00:02:03.993Z,14.61
2022-08-22T00:02:49.934Z,16.83
2022-08-22T00:02:56.460Z,18.84
2022-08-22T00:02:57.438Z,16.00
2022-08-22T00:04:36.422Z,14.58
2022-08-22T00:07:13.613Z,14.55
2022-08-22T00:09:49.389Z,14.51
2022-08-22T00:12:22.525Z,14.49
2022-08-22T00:14:59.814Z,14.48
2022-08-22T00:17:36.157Z,14.47
2022-08-22T00:20:10.283Z,14.46
2022-08-22T00:22:47.679Z,14.40
2022-08-22T00:25:33.481Z,14.35
2022-08-22T00:28:06.149Z,14.30
2022-08-22T00:30:43.674Z,14.23
2022-08-22T00:33:22.841Z,14.19
2022-08-22T00:36:00.947Z,14.19
2022-08-22T00:38:34.693Z,14.16
2022-08-22T00:41:08.501Z,14.13
2022-08-22T00:44:18.108Z,14.11
2022-08-22T00:47:14.612Z,14.06
2022-08-22T00:50:15.388Z,14.05
2022-08-22T00:53:03.986Z,14.01
2022-08-22T00:55:44.577Z,13.97
2022-08-22T00:58:45.352Z,13.94
2022-08-22T01:01:17.701Z,13.91
2022-08-22T01:04:03.597Z,13.89
2022-08-22T01:06:43.742Z,13.87
2022-08-22T01:09:25.376Z,13.86
2022-08-22T01:12:15.656Z,13.80
2022-08-22T01:14:50.305Z,13.75
2022-08-22T01:17:50.323Z,13.73
2022-08-22T01:20:51.609Z,13.72
2022-08-22T01:23:56.246Z,13.71
2022-08-22T01:27:00.372Z,13.69
2022-08-22T01:30:02.705Z,13.69
2022-08-22T01:33:18.129Z,13.67
2022-08-22T01:36:04.831Z,13.65
2022-08-22T01:38:53.322Z,13.63
2022-08-22T01:41:59.753Z,13.58
2022-08-22T01:44:47.150Z,13.56
2022-08-22T01:47:19.960Z,13.50
2022-08-22T01:49:53.496Z,13.47
2022-08-22T01:52:38.561Z,13.48
2022-08-22T01:55:11.272Z,13.49
2022-08-22T01:57:52.542Z,13.51
2022-08-22T02:00:34.913Z,13.51
2022-08-22T02:03:13.478Z,13.49
2022-08-22T02:05:50.905Z,13.47
2022-08-22T02:08:31.203Z,13.45
2022-08-22T02:11:05.928Z,13.43
2022-08-22T02:13:46.269Z,13.43
2022-08-22T02:16:20.909Z,13.44
2022-08-22T02:19:04.637Z,13.41
2022-08-22T02:21:43.937Z,13.39
2022-08-22T02:24:29.424Z,13.36
2022-08-22T02:27:13.984Z,13.31
2022-08-22T02:29:49.226Z,13.29
2022-08-22T02:32:23.477Z,13.24
2022-08-22T02:35:01.178Z,13.21
2022-08-22T02:37:38.060Z,13.19
2022-08-22T02:40:15.719Z,13.17
2022-08-22T02:42:49.769Z,13.17
2022-08-22T02:45:25.961Z,13.19
2022-08-22T02:48:02.123Z,13.20
2022-08-22T02:50:39.042Z,13.20
2022-08-22T02:53:14.516Z,13.20
2022-08-22T02:55:51.536Z,13.20
2022-08-22T02:58:29.054Z,13.20
2022-08-22T03:01:17.595Z,13.20
2022-08-22T03:03:48.331Z,13.21
2022-08-22T03:06:37.402Z,13.23
2022-08-22T03:09:22.992Z,13.23
2022-08-22T03:12:03.900Z,13.21
2022-08-22T03:14:39.919Z,13.17
2022-08-22T03:17:12.589Z,13.13
2022-08-22T03:19:52.677Z,13.12
2022-08-22T03:22:27.461Z,13.08
2022-08-22T03:25:03.847Z,13.01
2022-08-22T03:27:41.716Z,12.99
2022-08-22T03:30:16.764Z,12.98
2022-08-22T03:32:50.726Z,12.95
2022-08-22T03:35:29.737Z,12.94
2022-08-22T03:38:12.305Z,12.90
2022-08-22T03:40:53.990Z,12.90
2022-08-22T03:43:58.240Z,12.89
2022-08-22T03:46:52.869Z,12.86
2022-08-22T03:49:59.753Z,12.87
2022-08-22T03:53:18.775Z,12.84
2022-08-22T03:56:25.566Z,12.83
2022-08-22T03:59:28.133Z,12.81
2022-08-22T04:02:24.681Z,12.80
2022-08-22T04:05:33.749Z,12.78
2022-08-22T04:08:29.389Z,12.75
2022-08-22T04:11:21.349Z,12.72
2022-08-22T04:14:28.773Z,12.71
2022-08-22T04:17:15.265Z,12.72
2022-08-22T04:20:01.507Z,12.74
2022-08-22T04:22:58.289Z,12.73
2022-08-22T04:25:32.156Z,12.76
2022-08-22T04:28:06.985Z,12.77
2022-08-22T04:30:41.909Z,12.83
2022-08-22T04:33:17.452Z,12.89
2022-08-22T04:35:53.800Z,12.96
2022-08-22T04:38:28.629Z,13.02
2022-08-22T04:41:04.581Z,13.13
2022-08-22T04:43:37.173Z,13.18
2022-08-22T04:46:12.981Z,13.24
2022-08-22T04:48:45.569Z,13.30
2022-08-22T04:51:21.920Z,13.36
2022-08-22T04:54:27.039Z,13.47
2022-08-22T04:57:17.300Z,13.60
2022-08-22T04:59:45.698Z,13.73
2022-08-22T05:02:23.505Z,14.38
2022-08-22T05:04:59.064Z,15.34
2022-08-22T05:07:33.906Z,16.47
2022-08-22T05:10:12.243Z,17.49
2022-08-22T05:12:44.445Z,18.52
2022-08-22T05:15:19.046Z,19.45
2022-08-22T05:17:56.802Z,20.32
2022-08-22T05:20:28.788Z,21.20
2022-08-22T05:23:00.379Z,21.92
2022-08-22T05:25:31.038Z,22.59
2022-08-22T05:28:08.446Z,23.07
2022-08-22T05:30:36.916Z,23.68
2022-08-22T05:33:14.658Z,24.22
2022-08-22T05:35:50.780Z,24.84
2022-08-22T05:38:24.239Z,25.53
2022-08-22T05:40:58.607Z,26.17
2022-08-22T05:43:27.419Z,26.85
2022-08-22T05:45:58.424Z,27.41
2022-08-22T05:48:36.530Z,27.97
2022-08-22T05:51:14.130Z,28.41
2022-08-22T05:53:47.184Z,28.86
2022-08-22T05:56:19.732Z,29.10
2022-08-22T05:58:52.846Z,29.39
2022-08-22T06:01:27.529Z,29.86
2022-08-22T06:04:02.417Z,30.23
2022-08-22T06:06:33.593Z,30.06
2022-08-22T06:09:06.876Z,30.16
2022-08-22T06:11:40.920Z,30.28
2022-08-22T06:14:24.879Z,30.53
2022-08-22T06:16:59.836Z,29.71
2022-08-22T06:19:29.414Z,29.09
2022-08-22T06:21:58.288Z,29.23
2022-08-22T06:24:28.618Z,29.08
2022-08-22T06:27:02.596Z,28.82
2022-08-22T06:29:38.552Z,28.45
2022-08-22T06:32:13.487Z,28.52
2022-08-22T06:34:46.266Z,28.60
2022-08-22T06:37:24.577Z,28.78
2022-08-22T06:39:54.491Z,28.64
2022-08-22T06:42:26.044Z,29.16
2022-08-22T06:44:58.273Z,28.83
2022-08-22T06:47:28.378Z,28.24
2022-08-22T06:50:02.476Z,28.15
2022-08-22T06:52:35.973Z,28.31
2022-08-22T06:55:07.772Z,28.75
2022-08-22T06:57:38.276Z,28.33
2022-08-22T07:00:10.178Z,28.33
2022-08-22T07:02:43.162Z,27.91
2022-08-22T07:05:17.790Z,28.02
2022-08-22T07:07:46.052Z,27.98
2022-08-22T07:10:16.021Z,28.15
2022-08-22T07:12:47.213Z,28.29
2022-08-22T07:15:32.344Z,28.51
2022-08-22T07:18:04.280Z,28.79
2022-08-22T07:20:38.365Z,28.74
2022-08-22T07:23:09.741Z,28.20
2022-08-22T07:25:51.616Z,28.00
2022-08-22T07:28:31.790Z,27.81
2022-08-22T07:31:16.857Z,28.06
2022-08-22T07:33:49.688Z,27.36
2022-08-22T07:36:25.044Z,27.02
2022-08-22T07:39:05.278Z,26.54
2022-08-22T07:41:52.524Z,25.77
2022-08-22T07:44:23.680Z,25.42
2022-08-22T07:46:58.201Z,25.18
2022-08-22T07:49:30.584Z,24.51
2022-08-22T07:52:04.852Z,24.54
2022-08-22T07:54:40.853Z,24.74
2022-08-22T07:57:12.849Z,24.67
2022-08-22T07:59:46.933Z,24.56
2022-08-22T08:02:16.973Z,24.00
2022-08-22T08:04:45.145Z,24.39
2022-08-22T08:07:17.853Z,24.05
2022-08-22T08:09:50.812Z,23.98
2022-08-22T08:12:21.989Z,23.88
2022-08-22T08:14:56.609Z,24.05
2022-08-22T08:17:31.866Z,24.07
2022-08-22T08:20:04.519Z,24.19
2022-08-22T08:22:34.548Z,23.95
2022-08-22T08:25:03.497Z,23.85
2022-08-22T08:27:52.631Z,24.25
2022-08-22T08:30:24.901Z,24.39
2022-08-22T08:32:57.543Z,24.27
2022-08-22T08:36:02.810Z,24.15
2022-08-22T08:38:37.841Z,23.97
2022-08-22T08:41:29.711Z,23.90
2022-08-22T08:44:06.881Z,23.89
2022-08-22T08:46:59.935Z,23.56
2022-08-22T08:49:44.312Z,23.72
2022-08-22T08:52:40.538Z,23.77
2022-08-22T08:58:34.785Z,23.59
2022-08-22T09:01:16.814Z,23.82
2022-08-22T09:04:16.413Z,23.38
2022-08-22T09:07:16.577Z,23.43
2022-08-22T09:09:58.460Z,23.73
2022-08-22T09:12:56.210Z,23.49
2022-08-22T09:15:58.426Z,23.79
2022-08-22T09:19:00.780Z,23.39
2022-08-22T09:22:00.430Z,23.90
2022-08-22T09:25:06.073Z,23.94
2022-08-22T09:27:38.995Z,23.68
2022-08-22T09:30:11.940Z,23.45
2022-08-22T09:32:54.546Z,23.26
2022-08-22T09:35:34.973Z,23.21
2022-08-22T09:38:26.803Z,23.39
2022-08-22T09:41:04.865Z,23.70
2022-08-22T09:43:39.947Z,23.90
2022-08-22T09:46:19.627Z,23.86
2022-08-22T09:49:01.136Z,23.51
2022-08-22T09:51:38.702Z,23.59
2022-08-22T09:54:22.061Z,23.67
2022-08-22T09:56:59.026Z,23.41
2022-08-22T09:59:42.690Z,23.25
2022-08-22T10:02:29.499Z,23.23
2022-08-22T10:05:04.184Z,23.23
2022-08-22T10:07:52.800Z,23.25
2022-08-22T10:10:35.812Z,23.31
2022-08-22T10:13:11.648Z,23.38
2022-08-22T10:15:50.338Z,23.32
2022-08-22T10:18:33.369Z,23.51
2022-08-22T10:21:12.077Z,23.32
2022-08-22T10:23:46.401Z,23.42
2022-08-22T10:26:29.177Z,23.21
2022-08-22T10:29:08.212Z,23.24
2022-08-22T10:31:58.936Z,23.55
2022-08-22T10:34:31.777Z,23.91
2022-08-22T10:37:11.717Z,24.06
2022-08-22T10:39:46.519Z,24.91
2022-08-22T10:42:27.887Z,25.14
2022-08-22T10:45:16.009Z,24.96
2022-08-22T10:48:31.561Z,25.17
2022-08-22T10:51:37.097Z,25.24
2022-08-22T10:54:26.857Z,25.03
2022-08-22T10:57:09.600Z,24.82
2022-08-22T10:59:45.733Z,24.83
2022-08-22T11:02:34.593Z,24.92
2022-08-22T11:05:24.463Z,24.88
2022-08-22T11:08:17.361Z,24.99
2022-08-22T11:11:02.339Z,25.56
2022-08-22T11:13:43.326Z,25.48
2022-08-22T11:16:23.881Z,25.38
2022-08-22T11:19:16.035Z,25.20
2022-08-22T11:22:02.061Z,25.85
2022-08-22T11:25:11.365Z,26.40
2022-08-22T11:27:54.661Z,26.37
2022-08-22T11:30:31.820Z,26.65
2022-08-22T11:33:17.994Z,26.99
2022-08-22T11:35:55.978Z,26.83
2022-08-22T11:38:32.715Z,26.85
2022-08-22T11:41:05.701Z,26.12
2022-08-22T11:43:46.788Z,26.27
2022-08-22T11:46:19.998Z,26.30
2022-08-22T11:49:06.233Z,26.77
2022-08-22T11:52:04.709Z,26.64
2022-08-22T11:54:51.921Z,26.80
2022-08-22T11:57:30.529Z,26.32
2022-08-22T12:00:15.095Z,26.46
2022-08-22T12:02:58.528Z,26.60
2022-08-22T12:05:33.536Z,26.59
2022-08-22T12:08:08.365Z,27.14
2022-08-22T12:10:44.225Z,27.51
2022-08-22T12:13:20.447Z,27.49
2022-08-22T12:16:15.566Z,27.77
2022-08-22T12:18:52.977Z,27.55
2022-08-22T12:22:05.022Z,27.53
2022-08-22T12:24:46.542Z,27.42
2022-08-22T12:27:28.781Z,27.48
2022-08-22T12:30:12.870Z,27.47
2022-08-22T12:33:20.761Z,27.44
2022-08-22T12:36:18.165Z,27.38
2022-08-22T12:39:01.494Z,27.27
2022-08-22T12:42:00.023Z,27.28
2022-08-22T12:44:42.345Z,27.07
2022-08-22T12:47:23.272Z,27.06
2022-08-22T12:50:12.307Z,26.76
2022-08-22T12:53:10.064Z,26.82
2022-08-22T12:55:50.715Z,26.55
2022-08-22T12:58:33.896Z,26.20
2022-08-22T13:01:05.464Z,26.06
2022-08-22T13:03:37.976Z,25.92
2022-08-22T13:06:27.165Z,25.48
2022-08-22T13:08:56.352Z,25.50
2022-08-22T13:11:24.510Z,25.41
2022-08-22T13:13:57.269Z,25.47
2022-08-22T13:16:27.335Z,25.67
2022-08-22T13:18:58.238Z,25.56
2022-08-22T13:21:31.552Z,25.54
2022-08-22T13:24:10.786Z,25.54
2022-08-22T13:26:49.170Z,25.42
2022-08-22T13:29:39.667Z,25.43
2022-08-22T13:32:17.341Z,25.46
2022-08-22T13:34:49.119Z,25.41
2022-08-22T13:37:24.562Z,25.19
2022-08-22T13:40:01.822Z,24.92
2022-08-22T13:42:33.360Z,25.09
2022-08-22T13:45:05.709Z,25.05
2022-08-22T13:47:39.295Z,25.04
2022-08-22T13:50:14.017Z,24.93
2022-08-22T13:52:52.588Z,24.91
2022-08-22T13:55:30.687Z,24.87
2022-08-22T13:58:07.604Z,24.86
2022-08-22T14:01:10.238Z,24.68
2022-08-22T14:03:45.458Z,24.79
2022-08-22T14:06:35.313Z,24.57
2022-08-22T14:09:15.193Z,24.75
2022-08-22T14:11:49.872Z,24.95
2022-08-22T14:14:26.415Z,25.12
2022-08-22T14:16:56.680Z,25.19
2022-08-22T14:19:29.782Z,25.46
2022-08-22T14:22:00.493Z,25.36
2022-08-22T14:24:31.921Z,25.48
2022-08-22T14:27:05.342Z,25.63
2022-08-22T14:29:41.823Z,25.30
2022-08-22T14:32:32.554Z,25.17
2022-08-22T14:35:10.673Z,25.00
2022-08-22T14:37:49.552Z,24.37
2022-08-22T14:40:22.576Z,24.36
2022-08-22T14:42:56.729Z,24.25
2022-08-22T14:45:28.829Z,24.32
2022-08-22T14:48:31.698Z,24.37
2022-08-22T14:51:00.929Z,24.36
2022-08-22T14:53:34.918Z,24.33
2022-08-22T14:56:07.228Z,24.17
2022-08-22T14:58:46.675Z,24.25
2022-08-22T15:01:17.285Z,24.41
2022-08-22T15:03:51.988Z,24.54
2022-08-22T15:06:35.061Z,24.83
2022-08-22T15:09:07.791Z,24.81
2022-08-22T15:11:37.639Z,24.70
2022-08-22T15:14:22.885Z,24.69
2022-08-22T15:16:55.281Z,24.50
2022-08-22T15:19:27.239Z,24.45
2022-08-22T15:22:13.487Z,24.50
2022-08-22T15:24:44.467Z,24.59
2022-08-22T15:27:12.860Z,24.52
2022-08-22T15:29:51.601Z,24.59
2022-08-22T15:32:22.145Z,24.39
2022-08-22T15:34:52.462Z,24.18
2022-08-22T15:37:32.919Z,24.06
2022-08-22T15:40:08.111Z,24.16
2022-08-22T15:42:40.989Z,23.94
2022-08-22T15:45:22.313Z,23.75
2022-08-22T15:47:53.073Z,23.81
2022-08-22T15:50:32.157Z,23.76
2022-08-22T15:53:20.487Z,23.83
2022-08-22T15:56:25.546Z,23.97
2022-08-22T15:59:30.402Z,23.68
2022-08-22T16:02:28.768Z,23.54
2022-08-22T16:05:19.328Z,23.40
2022-08-22T16:07:50.578Z,23.24
2022-08-22T16:10:32.533Z,23.07
2022-08-22T16:13:33.553Z,22.94
2022-08-22T16:16:05.280Z,22.82
2022-08-22T16:19:16.026Z,22.73
2022-08-22T16:22:06.117Z,22.53
2022-08-22T16:24:55.997Z,22.51
2022-08-22T16:27:26.905Z,22.57
2022-08-22T16:30:06.491Z,22.54
2022-08-22T16:32:34.922Z,22.55
2022-08-22T16:35:02.677Z,22.59
2022-08-22T16:37:50.164Z,22.59
2022-08-22T16:40:26.117Z,22.58
2022-08-22T16:43:13.896Z,22.57
2022-08-22T16:45:45.338Z,22.49
2022-08-22T16:48:33.523Z,22.47
2022-08-22T16:51:22.463Z,22.38
2022-08-22T16:54:11.177Z,22.48
2022-08-22T16:57:09.383Z,22.45
2022-08-22T16:59:59.800Z,22.39
2022-08-22T17:02:49.145Z,22.33
2022-08-22T17:05:29.851Z,22.24
2022-08-22T17:08:12.034Z,22.19
2022-08-22T17:10:52.396Z,22.11
2022-08-22T17:13:32.792Z,22.15
2022-08-22T17:16:24.690Z,22.21
2022-08-22T17:19:09.117Z,22.22
2022-08-22T17:21:50.608Z,22.22
2022-08-22T17:24:34.110Z,22.30
2022-08-22T17:27:08.925Z,22.28
2022-08-22T17:29:52.023Z,22.22
2022-08-22T17:32:27.648Z,22.14
2022-08-22T17:35:13.443Z,22.15
2022-08-22T17:37:47.610Z,22.10
2022-08-22T17:40:30.437Z,22.00
2022-08-22T17:43:10.976Z,21.99
2022-08-22T17:45:50.173Z,21.97
2022-08-22T17:48:21.835Z,21.85
2022-08-22T17:50:54.749Z,21.75
2022-08-22T17:53:37.377Z,21.69
2022-08-22T17:56:15.479Z,21.67
2022-08-22T17:58:49.720Z,21.58
2022-08-22T18:01:38.174Z,21.52
2022-08-22T18:04:10.275Z,21.44
2022-08-22T18:06:47.993Z,21.38
2022-08-22T18:09:32.265Z,21.32
2022-08-22T18:12:05.657Z,21.23
2022-08-22T18:14:45.746Z,21.14
2022-08-22T18:17:18.813Z,20.97
2022-08-22T18:19:57.335Z,20.93
2022-08-22T18:22:31.538Z,20.84
2022-08-22T18:25:04.455Z,20.78
2022-08-22T18:27:38.093Z,20.73
2022-08-22T18:30:17.619Z,20.65
2022-08-22T18:32:55.482Z,20.59
2022-08-22T18:35:28.930Z,20.53
2022-08-22T18:38:03.420Z,20.49
2022-08-22T18:40:53.244Z,20.46
2022-08-22T18:43:26.982Z,20.38
2022-08-22T18:46:03.560Z,20.34
2022-08-22T18:48:54.307Z,20.26
2022-08-22T18:51:30.653Z,20.23
2022-08-22T18:54:19.282Z,20.17
2022-08-22T18:56:51.509Z,20.14
2022-08-22T18:59:41.436Z,20.10
2022-08-22T19:02:41.270Z,20.06
2022-08-22T19:05:33.393Z,19.99
2022-08-22T19:08:24.833Z,19.95
2022-08-22T19:11:06.809Z,19.91
2022-08-22T19:13:58.400Z,19.86
2022-08-22T19:16:54.582Z,19.78
2022-08-22T19:19:53.865Z,19.73
2022-08-22T19:22:25.151Z,19.70
2022-08-22T19:25:17.968Z,19.66
2022-08-22T19:28:07.161Z,19.64
2022-08-22T19:30:44.062Z,19.58
2022-08-22T19:33:13.067Z,19.56
2022-08-22T19:36:07.177Z,19.52
2022-08-22T19:39:00.873Z,19.50
2022-08-22T19:41:52.443Z,19.46
2022-08-22T19:44:35.132Z,19.44
2022-08-22T19:47:09.298Z,19.42
2022-08-22T19:49:39.710Z,19.42
2022-08-22T19:52:22.068Z,19.39
2022-08-22T19:54:57.780Z,19.34
2022-08-22T19:57:40.070Z,19.34
2022-08-22T20:00:12.953Z,19.34
2022-08-22T20:02:56.513Z,19.34
2022-08-22T20:05:30.877Z,19.35
2022-08-22T20:08:11.708Z,19.35
2022-08-22T20:10:51.593Z,19.38
2022-08-22T20:13:23.284Z,19.38
2022-08-22T20:16:16.250Z,19.41
2022-08-22T20:19:07.821Z,19.42
2022-08-22T20:21:44.321Z,19.43
2022-08-22T20:24:17.376Z,19.43
2022-08-22T20:27:12.335Z,19.45
2022-08-22T20:29:39.645Z,19.48
2022-08-22T20:32:07.868Z,19.49
2022-08-22T20:34:40.374Z,19.49
2022-08-22T20:37:29.530Z,19.51
2022-08-22T20:40:25.762Z,19.54
2022-08-22T20:43:10.950Z,19.56
2022-08-22T20:45:50.107Z,19.57
2022-08-22T20:48:17.717Z,19.59
2022-08-22T20:50:45.312Z,19.58
2022-08-22T20:53:17.512Z,19.60
2022-08-22T20:55:54.982Z,19.61
2022-08-22T20:58:25.391Z,19.63
2022-08-22T21:01:00.061Z,19.63
2022-08-22T21:03:36.215Z,19.63
2022-08-22T21:06:11.960Z,19.63
2022-08-22T21:08:40.594Z,19.63
2022-08-22T21:11:27.957Z,19.65
2022-08-22T21:13:55.841Z,19.64
2022-08-22T21:16:31.667Z,19.64
2022-08-22T21:19:01.531Z,19.64
2022-08-22T21:21:30.978Z,19.63
2022-08-22T21:24:01.865Z,19.64
2022-08-22T21:26:33.795Z,19.65
2022-08-22T21:29:06.296Z,19.64
2022-08-22T21:31:37.730Z,19.63
2022-08-22T21:34:05.782Z,19.62
2022-08-22T21:36:38.889Z,19.63
2022-08-22T21:39:13.588Z,19.64
2022-08-22T21:41:45.086Z,19.63
2022-08-22T21:44:25.933Z,19.61
2022-08-22T21:46:54.477Z,19.61
2022-08-22T21:49:25.346Z,19.59
2022-08-22T21:51:54.050Z,19.57
2022-08-22T21:54:33.143Z,19.54
2022-08-22T21:57:21.221Z,19.53
2022-08-22T21:59:59.649Z,19.51
2022-08-22T22:02:35.308Z,19.48
2022-08-22T22:05:09.837Z,19.47
2022-08-22T22:07:40.131Z,19.44
2022-08-22T22:10:10.558Z,19.42
2022-08-22T22:12:41.585Z,19.40
2022-08-22T22:15:12.037Z,19.39
2022-08-22T22:17:39.638Z,19.36
2022-08-22T22:20:08.868Z,19.33
2022-08-22T22:22:37.201Z,19.32
2022-08-22T22:25:41.124Z,19.28
2022-08-22T22:28:05.126Z,19.24
2022-08-22T22:30:32.712Z,19.23
2022-08-22T22:33:00.336Z,19.22
2022-08-22T22:35:28.121Z,19.22
2022-08-22T22:37:56.267Z,19.18
2022-08-22T22:40:24.849Z,19.21
2022-08-22T22:42:52.476Z,19.20
2022-08-22T22:45:21.394Z,19.20
2022-08-22T22:47:48.988Z,19.21
2022-08-22T22:50:16.552Z,19.19
2022-08-22T22:52:44.188Z,19.21
2022-08-22T22:55:12.077Z,19.20
2022-08-22T22:57:57.794Z,19.21
2022-08-22T23:00:30.846Z,19.20
2022-08-22T23:02:59.419Z,19.21
2022-08-22T23:05:26.996Z,19.20
2022-08-22T23:07:54.570Z,19.22
2022-08-22T23:10:22.385Z,19.22
2022-08-22T23:12:50.011Z,19.22
2022-08-22T23:15:17.576Z,19.20
2022-08-22T23:17:46.845Z,19.19
2022-08-22T23:20:14.648Z,19.20
2022-08-22T23:22:42.864Z,19.18
2022-08-22T23:25:10.688Z,19.18
2022-08-22T23:27:38.468Z,19.18
2022-08-22T23:30:08.530Z,19.17
2022-08-22T23:32:36.721Z,19.18
2022-08-22T23:35:06.512Z,19.18
2022-08-22T23:37:34.409Z,19.18
2022-08-22T23:40:02.254Z,19.18
2022-08-22T23:42:30.073Z,19.17
2022-08-22T23:44:57.656Z,19.17
2022-08-22T23:47:25.337Z,19.17
2022-08-22T23:49:53.120Z,19.17
2022-08-22T23:52:22.100Z,19.14
2022-08-22T23:54:54.310Z,19.15
2022-08-22T23:57:27.463Z,19.13
2022-08-22T23:59:57.959Z,19.11
